createdAt,value
2023-03-22T00:01:30.912Z,99.90
2023-03-22T00:03:57.627Z,99.90
2023-03-22T00:06:25.417Z,99.90
2023-03-22T00:08:53.182Z,99.90
2023-03-22T00:11:22.498Z,99.90
2023-03-22T00:13:52.313Z,99.90
2023-03-22T00:16:19.953Z,99.90
2023-03-22T00:18:46.799Z,99.90
2023-03-22T00:21:15.648Z,99.90
2023-03-22T00:23:43.143Z,99.90
2023-03-22T00:26:11.599Z,99.90
2023-03-22T00:28:38.101Z,99.90
2023-03-22T00:31:05.842Z,99.90
2023-03-22T00:33:32.968Z,99.90
2023-03-22T00:36:01.959Z,99.90
2023-03-22T00:38:42.524Z,99.90
2023-03-22T00:41:12.745Z,99.90
2023-03-22T00:43:39.552Z,99.90
2023-03-22T00:46:06.608Z,99.90
2023-03-22T00:48:33.356Z,99.90
2023-03-22T00:51:00.146Z,99.90
2023-03-22T00:53:28.946Z,99.90
2023-03-22T00:55:56.704Z,99.90
2023-03-22T00:58:23.356Z,99.90
2023-03-22T01:00:50.262Z,99.90
2023-03-22T01:03:17.349Z,99.90
2023-03-22T01:05:47.034Z,99.90
2023-03-22T01:08:14.880Z,99.90
2023-03-22T01:10:42.561Z,99.90
2023-03-22T01:13:10.746Z,99.90
2023-03-22T01:15:37.972Z,99.90
2023-03-22T01:18:04.863Z,99.90
2023-03-22T01:20:31.948Z,99.90
2023-03-22T01:22:59.365Z,99.90
2023-03-22T01:25:25.978Z,99.90
2023-03-22T01:27:52.511Z,99.90
2023-03-22T01:30:19.221Z,99.90
2023-03-22T01:32:45.781Z,99.90
2023-03-22T01:35:12.535Z,99.90
2023-03-22T01:37:39.161Z,99.90
2023-03-22T01:40:06.595Z,99.90
2023-03-22T01:42:33.112Z,99.90
2023-03-22T01:45:14.798Z,99.90
2023-03-22T01:47:51.873Z,99.90
2023-03-22T01:50:19.333Z,99.90
2023-03-22T01:52:45.969Z,99.90
2023-03-22T01:55:13.410Z,99.90
2023-03-22T01:57:41.462Z,99.90
2023-03-22T02:00:15.768Z,99.90
2023-03-22T02:02:44.167Z,99.90
2023-03-22T02:05:12.190Z,99.90
2023-03-22T02:07:42.040Z,99.90
2023-03-22T02:10:14.034Z,99.90
2023-03-22T02:13:15.595Z,99.90
2023-03-22T02:16:20.798Z,99.90
2023-03-22T02:18:58.261Z,99.90
2023-03-22T02:21:33.638Z,99.90
2023-03-22T02:24:24.085Z,99.90
2023-03-22T02:27:09.235Z,99.90
2023-03-22T02:29:59.108Z,99.90
2023-03-22T02:32:58.245Z,99.90
2023-03-22T02:35:33.572Z,99.90
2023-03-22T02:38:21.304Z,99.90
2023-03-22T02:41:04.784Z,99.90
2023-03-22T02:43:56.273Z,99.90
2023-03-22T02:46:44.010Z,99.90
2023-03-22T02:49:23.473Z,99.90
2023-03-22T02:52:01.319Z,99.90
2023-03-22T02:54:38.052Z,99.90
2023-03-22T02:57:28.440Z,99.90
2023-03-22T02:59:56.866Z,99.90
2023-03-22T03:02:26.552Z,99.90
2023-03-22T03:04:55.920Z,99.90
2023-03-22T03:07:24.632Z,99.90
2023-03-22T03:09:51.725Z,99.90
2023-03-22T03:12:21.386Z,99.90
2023-03-22T03:14:48.169Z,99.90
2023-03-22T03:17:29.526Z,99.90
2023-03-22T03:20:21.959Z,99.90
2023-03-22T03:23:00.238Z,99.90
2023-03-22T03:25:43.238Z,99.90
2023-03-22T03:28:29.953Z,99.90
2023-03-22T03:31:16.720Z,99.90
2023-03-22T03:33:53.642Z,99.90
2023-03-22T03:36:22.197Z,99.90
2023-03-22T03:38:53.614Z,99.90
2023-03-22T03:41:23.801Z,99.90
2023-03-22T03:43:51.489Z,99.90
2023-03-22T03:46:18.343Z,99.90
2023-03-22T03:48:48.482Z,99.90
2023-03-22T03:51:15.514Z,99.90
2023-03-22T03:53:42.284Z,99.90
2023-03-22T03:56:09.216Z,99.90
2023-03-22T03:58:35.858Z,99.90
2023-03-22T04:01:04.030Z,99.90
2023-03-22T04:03:31.322Z,99.90
2023-03-22T04:05:59.630Z,99.90
2023-03-22T04:08:27.014Z,99.90
2023-03-22T04:10:53.637Z,99.90
2023-03-22T04:13:21.546Z,99.90
2023-03-22T04:15:53.066Z,99.90
2023-03-22T04:18:19.718Z,99.90
2023-03-22T04:20:46.978Z,99.90
2023-03-22T04:23:13.542Z,99.90
2023-03-22T04:25:40.045Z,99.90
2023-03-22T04:28:07.389Z,99.90
2023-03-22T04:30:36.026Z,99.90
2023-03-22T04:33:06.966Z,99.90
2023-03-22T04:35:34.902Z,99.90
2023-03-22T04:38:01.493Z,99.90
2023-03-22T04:40:31.566Z,99.90
2023-03-22T04:42:58.825Z,99.90
2023-03-22T04:45:29.077Z,99.90
2023-03-22T04:47:56.107Z,99.90
2023-03-22T04:50:22.701Z,99.90
2023-03-22T04:52:49.796Z,99.90
2023-03-22T04:55:16.726Z,99.90
2023-03-22T04:57:43.227Z,99.90
2023-03-22T05:00:10.127Z,99.90
2023-03-22T05:02:41.521Z,99.90
2023-03-22T05:05:08.463Z,99.90
2023-03-22T05:07:35.094Z,99.90
2023-03-22T05:10:01.878Z,99.90
2023-03-22T05:12:28.386Z,99.90
2023-03-22T05:14:54.941Z,99.90
2023-03-22T05:17:21.508Z,99.90
2023-03-22T05:19:48.295Z,99.90
2023-03-22T05:22:14.835Z,99.90
2023-03-22T05:24:41.483Z,99.90
2023-03-22T05:27:08.319Z,99.90
2023-03-22T05:29:36.792Z,99.90
2023-03-22T05:32:04.390Z,99.90
2023-03-22T05:34:35.628Z,99.90
2023-03-22T05:37:02.796Z,99.90
2023-03-22T05:39:29.480Z,99.90
2023-03-22T05:41:56.170Z,99.90
2023-03-22T05:44:22.720Z,99.90
2023-03-22T05:46:49.316Z,99.90
2023-03-22T05:49:15.933Z,99.90
2023-03-22T05:51:42.562Z,99.90
2023-03-22T05:54:09.762Z,99.90
2023-03-22T05:56:36.500Z,99.90
2023-03-22T05:59:04.524Z,99.90
2023-03-22T06:01:31.276Z,99.90
2023-03-22T06:03:57.847Z,99.90
2023-03-22T06:06:24.574Z,99.90
2023-03-22T06:08:51.097Z,99.90
2023-03-22T06:11:19.132Z,99.90
2023-03-22T06:13:45.712Z,99.90
2023-03-22T06:16:12.300Z,99.90
2023-03-22T06:18:38.855Z,99.90
2023-03-22T06:21:05.783Z,99.90
2023-03-22T06:23:32.347Z,99.90
2023-03-22T06:25:58.993Z,99.90
2023-03-22T06:28:29.698Z,99.90
2023-03-22T06:30:56.517Z,99.90
2023-03-22T06:33:23.189Z,99.90
2023-03-22T06:35:49.761Z,99.90
2023-03-22T06:38:16.548Z,99.90
2023-03-22T06:40:43.313Z,99.90
2023-03-22T06:43:09.893Z,99.90
2023-03-22T06:45:36.450Z,99.90
2023-03-22T06:48:03.096Z,99.90
2023-03-22T06:50:29.908Z,99.90
2023-03-22T06:52:56.618Z,99.90
2023-03-22T06:55:24.706Z,99.90
2023-03-22T06:57:51.256Z,99.90
2023-03-22T07:00:18.237Z,99.90
2023-03-22T07:02:44.784Z,99.90
2023-03-22T07:05:11.323Z,99.90
2023-03-22T07:07:37.913Z,99.90
2023-03-22T07:10:05.275Z,99.90
2023-03-22T07:12:31.969Z,99.90
2023-03-22T07:14:58.622Z,99.90
2023-03-22T07:17:25.181Z,99.90
2023-03-22T07:19:51.692Z,99.90
2023-03-22T07:22:18.437Z,99.90
2023-03-22T07:24:56.183Z,99.90
2023-03-22T07:27:23.728Z,99.90
2023-03-22T07:29:50.428Z,99.90
2023-03-22T07:32:17.219Z,99.90
2023-03-22T07:34:43.947Z,99.90
2023-03-22T07:37:10.683Z,99.90
2023-03-22T07:39:37.367Z,99.90
2023-03-22T07:42:03.993Z,99.90
2023-03-22T07:44:30.753Z,99.90
2023-03-22T07:46:57.364Z,99.90
2023-03-22T07:49:23.992Z,99.90
2023-03-22T07:51:50.555Z,99.90
2023-03-22T07:54:32.107Z,99.90
2023-03-22T07:56:59.475Z,99.90
2023-03-22T07:59:26.281Z,99.90
2023-03-22T08:01:52.853Z,99.90
2023-03-22T08:04:20.834Z,99.90
2023-03-22T08:06:47.396Z,99.90
2023-03-22T08:09:13.955Z,99.90
2023-03-22T08:11:40.490Z,99.90
2023-03-22T08:14:07.217Z,99.90
2023-03-22T08:16:34.300Z,99.90
2023-03-22T08:19:01.049Z,99.90
2023-03-22T08:21:27.750Z,99.90
2023-03-22T08:23:54.436Z,98.30
2023-03-22T08:26:22.048Z,98.70
2023-03-22T08:28:48.667Z,99.40
2023-03-22T08:31:17.038Z,99.90
2023-03-22T08:33:44.480Z,99.90
2023-03-22T08:36:14.149Z,99.90
2023-03-22T08:38:42.286Z,99.90
2023-03-22T08:41:08.929Z,98.90
2023-03-22T08:43:35.515Z,99.80
2023-03-22T08:46:02.394Z,99.90
2023-03-22T08:48:30.686Z,99.90
2023-03-22T08:50:58.031Z,99.20
2023-03-22T08:53:24.735Z,96.90
2023-03-22T08:55:51.267Z,95.20
2023-03-22T08:58:19.762Z,95.00
2023-03-22T09:00:49.523Z,94.10
2023-03-22T09:03:16.942Z,93.90
2023-03-22T09:05:43.703Z,94.70
2023-03-22T09:08:18.443Z,96.80
2023-03-22T09:10:47.955Z,96.50
2023-03-22T09:13:16.707Z,96.80
2023-03-22T09:15:44.919Z,97.40
2023-03-22T09:18:12.086Z,96.70
2023-03-22T09:20:39.703Z,97.10
2023-03-22T09:23:06.820Z,98.30
2023-03-22T09:25:33.466Z,99.90
2023-03-22T09:28:00.008Z,99.90
2023-03-22T09:30:27.135Z,99.90
2023-03-22T09:32:54.230Z,99.90
2023-03-22T09:35:21.279Z,99.90
2023-03-22T09:37:49.178Z,99.90
2023-03-22T09:40:17.337Z,99.90
2023-03-22T09:42:50.207Z,99.90
2023-03-22T09:45:20.520Z,99.90
2023-03-22T09:47:51.153Z,99.90
2023-03-22T09:50:26.217Z,99.60
2023-03-22T09:52:53.613Z,99.80
2023-03-22T09:55:38.850Z,99.40
2023-03-22T09:58:32.818Z,99.00
2023-03-22T10:01:06.662Z,99.40
2023-03-22T10:04:26.266Z,99.90
2023-03-22T10:07:13.814Z,99.90
2023-03-22T10:09:55.056Z,99.90
2023-03-22T10:12:50.046Z,99.90
2023-03-22T10:15:20.938Z,99.90
2023-03-22T10:17:53.413Z,99.90
2023-03-22T10:20:24.014Z,99.90
2023-03-22T10:22:53.447Z,99.90
2023-03-22T10:25:27.391Z,99.90
2023-03-22T10:27:54.234Z,99.90
2023-03-22T10:30:24.378Z,99.90
2023-03-22T10:33:02.765Z,99.90
2023-03-22T10:35:30.573Z,99.90
2023-03-22T10:38:00.755Z,99.90
2023-03-22T10:40:31.133Z,99.90
2023-03-22T10:43:10.867Z,99.70
2023-03-22T10:45:38.167Z,98.90
2023-03-22T10:48:19.335Z,97.70
2023-03-22T10:50:46.444Z,95.00
2023-03-22T10:53:21.280Z,91.80
2023-03-22T10:55:48.084Z,88.40
2023-03-22T10:58:17.725Z,85.10
2023-03-22T11:00:53.590Z,89.20
2023-03-22T11:03:31.008Z,92.00
2023-03-22T11:06:12.582Z,93.60
2023-03-22T11:08:53.990Z,94.20
2023-03-22T11:11:20.609Z,94.40
2023-03-22T11:14:26.621Z,94.80
2023-03-22T11:16:57.085Z,93.30
2023-03-22T11:19:31.791Z,90.80
2023-03-22T11:21:59.991Z,90.80
2023-03-22T11:24:29.665Z,90.90
2023-03-22T11:27:18.775Z,92.10
2023-03-22T11:29:51.928Z,91.30
2023-03-22T11:32:21.156Z,90.30
2023-03-22T11:34:47.769Z,87.90
2023-03-22T11:37:18.214Z,83.00
2023-03-22T11:39:49.410Z,81.70
2023-03-22T11:42:20.817Z,78.80
2023-03-22T11:44:47.472Z,78.10
2023-03-22T11:47:14.382Z,77.00
2023-03-22T11:49:52.207Z,74.80
2023-03-22T11:52:25.798Z,74.50
2023-03-22T11:54:54.121Z,76.40
2023-03-22T11:57:27.258Z,77.50
2023-03-22T12:00:15.035Z,79.60
2023-03-22T12:02:50.320Z,80.90
2023-03-22T12:05:27.258Z,83.30
2023-03-22T12:08:20.822Z,84.80
2023-03-22T12:10:57.781Z,85.90
2023-03-22T12:13:43.783Z,86.10
2023-03-22T12:16:15.234Z,85.90
2023-03-22T12:19:19.630Z,86.30
2023-03-22T12:21:48.669Z,86.60
2023-03-22T12:24:35.683Z,88.30
2023-03-22T12:27:14.510Z,89.70
2023-03-22T12:29:51.898Z,88.70
2023-03-22T12:32:24.332Z,88.60
2023-03-22T12:34:55.126Z,89.80
2023-03-22T12:37:32.081Z,90.10
2023-03-22T12:40:25.973Z,90.70
2023-03-22T12:43:15.658Z,90.00
2023-03-22T12:45:49.098Z,89.60
2023-03-22T12:48:33.840Z,88.30
2023-03-22T12:51:06.178Z,89.30
2023-03-22T12:53:42.170Z,89.70
2023-03-22T12:56:31.109Z,89.10
2023-03-22T12:59:07.867Z,89.30
2023-03-22T13:01:58.356Z,89.70
2023-03-22T13:04:37.217Z,90.00
2023-03-22T13:07:30.557Z,88.90
2023-03-22T13:09:59.137Z,88.70
2023-03-22T13:12:29.174Z,88.30
2023-03-22T13:15:00.886Z,88.30
2023-03-22T13:17:27.513Z,89.30
2023-03-22T13:20:07.750Z,87.50
2023-03-22T13:22:37.525Z,89.20
2023-03-22T13:25:10.115Z,88.90
2023-03-22T13:27:46.047Z,86.60
2023-03-22T13:30:24.060Z,87.20
2023-03-22T13:33:08.489Z,88.30
2023-03-22T13:35:44.128Z,88.90
2023-03-22T13:38:19.356Z,89.30
2023-03-22T13:40:56.334Z,87.80
2023-03-22T13:43:33.735Z,87.80
2023-03-22T13:46:11.594Z,85.90
2023-03-22T13:48:47.380Z,86.40
2023-03-22T13:51:23.330Z,85.60
2023-03-22T13:53:52.573Z,85.90
2023-03-22T13:56:46.714Z,85.80
2023-03-22T13:59:27.397Z,85.20
2023-03-22T14:02:04.829Z,86.60
2023-03-22T14:04:42.928Z,86.30
2023-03-22T14:07:30.753Z,86.70
2023-03-22T14:10:21.144Z,87.10
2023-03-22T14:12:55.818Z,87.10
2023-03-22T14:15:32.644Z,87.70
2023-03-22T14:18:23.816Z,86.40
2023-03-22T14:20:55.354Z,87.00
